Hlavní strana
METAR-TAF:

METAR-TAF

Letiště :

Berlevåg, Norsko

zeměpisná šířka: 70-52N, zeměpisná délka: 029-02E, výška: 1 m

Aktuální stav počasí

Zpráva byla vytvořena před 6 hodinami a 10 minutami, v 20:50 UTC
Západojihozápadní vítr 9 kt
Teplota 3°C
Vlhkost vzduchu 93%
Tlak 998 hPa
Viditelnost 10 km a více
Skoro jasno ve výšce 1500 ft
Oblačno až skoro zataženo ve výšce 2200 ft

METAR: ENBV 182050Z 24009KT 9999 FEW015 BKN022 03/02 Q0998

Čas: 05:00 (03:00 UTC)

Předpověď počasí

Zpráva byla vytvořena před 8 hodinami a 11 minutami, v 18:49 UTC
Předpověď platná od 18 v 18 UTC do 18 v 21 UTC
Západojihozápadní vítr 8 kt
Viditelnost 10 km a více
Skoro jasno ve výšce 1000 ft
Polojasno ve výšce 3000 ft
Dočasný
od 18 v 18 UTC do 18 v 21 UTC
Oblačno až skoro zataženo ve výšce 800 ft

TAF: ENBV 181849Z 1818/1821 24008KT 9999 FEW010 SCT030 TEMPO 1818/1821 BKN008

Stav a předpovědi počasí z více než 4 000 letišť (zprávy METAR a TAF).

Červené a žluté tečky na mapě představují dostupné meteorologické stanice.

Když kurzor umístíte na tečku, zobrazí se název stanice.

Pak kliknutím zobrazíte stav a předpověď počasí.

Chcete-li změnit mapu, kliknutím na zelené tlačítko se znaménkem +mapu přiblížíte, kliknutím na zelené tlačítko se znaménkem – mapu oddálíte a kliknutím na zelené šipky přejdete na sousední mapy.


METAR-TAF: